Time;durP1;ratioP1;P1;durP2;ratioP2;P2;SDS_P1;SDS_P2;PMS_P1;PMS_P2;Temp;Humidity;BMP_temperature;BMP_pressure;BME280_temperature;BME280_humidity;BME280_pressure;Samples;Min_cycle;Max_cycle;Signal;HPM_P1;HPM_P2
2022/10/21 00:00:52;;;;;;;2.38;1.67;;;;;;;5.79;53.74;100315.06;4952475;29;20063;-81
2022/10/21 00:03:19;;;;;;;2.70;1.80;;;;;;;5.97;54.01;100333.47;4956642;28;20035;-81
2022/10/21 00:05:46;;;;;;;3.80;2.10;;;;;;;6.01;53.89;100337.91;4980402;28;20162;-81
2022/10/21 00:08:12;;;;;;;2.47;2.00;;;;;;;6.00;54.11;100330.09;4959230;28;20031;-81
2022/10/21 00:10:39;;;;;;;2.30;1.75;;;;;;;6.02;53.69;100331.00;4961517;28;20069;-80
2022/10/21 00:13:05;;;;;;;3.75;2.05;;;;;;;5.87;53.75;100314.34;4961761;28;20042;-81
2022/10/21 00:15:31;;;;;;;2.55;2.00;;;;;;;5.71;54.19;100294.25;4944779;28;20047;-82
2022/10/21 00:17:57;;;;;;;5.75;1.95;;;;;;;5.88;53.70;100321.25;4976676;28;20042;-80
2022/10/21 00:20:23;;;;;;;3.90;1.83;;;;;;;5.83;53.93;100315.13;4965197;28;20114;-79
2022/10/21 00:22:50;;;;;;;2.90;1.80;;;;;;;5.70;53.35;100295.94;4965094;28;20054;-81
2022/10/21 00:25:16;;;;;;;6.30;2.10;;;;;;;5.75;54.19;100303.78;4980134;28;20038;-82
2022/10/21 00:27:43;;;;;;;3.88;2.20;;;;;;;5.70;53.66;100295.09;4980643;28;20112;-82
2022/10/21 00:30:11;;;;;;;4.53;2.20;;;;;;;5.90;54.65;100320.44;4980640;28;20044;-81
2022/10/21 00:32:37;;;;;;;3.40;1.90;;;;;;;5.90;54.53;100310.94;4998916;28;20133;-82
2022/10/21 00:35:05;;;;;;;3.53;1.75;;;;;;;5.83;54.35;100296.19;4965287;28;20136;-83
2022/10/21 00:37:32;;;;;;;3.95;1.55;;;;;;;5.85;54.08;100307.41;4984180;28;20045;-82
2022/10/21 00:39:58;;;;;;;2.15;1.67;;;;;;;5.90;53.73;100313.53;5002316;28;20058;-81
2022/10/21 00:42:36;;;;;;;9.77;2.20;;;;;;;5.83;53.99;100297.06;4984482;28;20069;-79
2022/10/21 00:45:06;;;;;;;2.78;1.77;;;;;;;5.91;54.17;100310.09;4997367;28;20188;-82
2022/10/21 00:47:49;;;;;;;2.13;1.90;;;;;;;5.84;54.53;100287.59;4969078;28;20033;-81
2022/10/21 00:50:19;;;;;;;2.75;2.00;;;;;;;5.97;54.40;100293.84;5003053;28;20026;-80
2022/10/21 00:52:45;;;;;;;4.13;2.17;;;;;;;6.01;53.88;100295.66;4987000;28;20026;-81
2022/10/21 00:55:11;;;;;;;6.53;2.08;;;;;;;6.03;54.11;100294.00;5002220;28;20070;-82
2022/10/21 00:57:38;;;;;;;3.75;2.15;;;;;;;6.05;53.71;100292.31;4999575;28;20073;-79
2022/10/21 01:00:05;;;;;;;3.28;2.10;;;;;;;6.00;53.98;100279.31;5017757;28;20081;-82
2022/10/21 01:02:32;;;;;;;3.33;2.20;;;;;;;5.80;54.15;100234.16;5017518;28;20046;-80
2022/10/21 01:05:01;;;;;;;3.70;2.40;;;;;;;6.07;54.43;100275.13;4995439;28;20072;-79
2022/10/21 01:07:28;;;;;;;5.28;2.47;;;;;;;6.06;54.19;100272.53;4993780;28;20046;-82
2022/10/21 01:09:54;;;;;;;4.82;2.53;;;;;;;6.07;54.24;100288.03;5000647;28;20122;-82
2022/10/21 01:12:45;;;;;;;5.30;2.78;;;;;;;6.02;54.18;100281.91;5016490;28;20114;-82
2022/10/21 01:15:24;;;;;;;5.63;3.23;;;;;;;6.16;54.79;100290.78;4994610;28;20093;-81
2022/10/21 01:18:36;;;;;;;6.97;3.17;;;;;;;6.20;54.53;100296.00;4985535;28;20128;-82
2022/10/21 01:21:21;;;;;;;4.78;2.90;;;;;;;6.19;54.22;100295.13;5000856;28;20058;-81
2022/10/21 01:23:54;;;;;;;2.97;2.53;;;;;;;6.13;54.41;100315.69;5015766;28;20069;-82
2022/10/21 01:26:25;;;;;;;;;;;;;;;6.09;54.95;100313.88;5000868;28;20053;-81
2022/10/21 01:29:29;;;;;;;5.78;3.22;;;;;;;6.11;55.00;100307.03;4968373;28;19951;-82
2022/10/21 01:32:32;;;;;;;4.15;2.83;;;;;;;6.08;54.75;100304.41;4983966;28;20046;-80
2022/10/21 01:35:11;;;;;;;8.55;3.17;;;;;;;6.06;54.96;100306.09;5017163;28;20030;-82
2022/10/21 01:37:59;;;;;;;7.03;2.92;;;;;;;6.05;54.38;100299.19;5006645;28;20082;-82
2022/10/21 01:40:34;;;;;;;5.55;3.17;;;;;;;5.94;54.67;100307.59;5000084;28;20073;-81
2022/10/21 01:43:16;;;;;;;5.60;3.25;;;;;;;5.83;54.88;100288.44;4988206;28;20054;-81
2022/10/21 01:45:47;;;;;;;4.97;3.45;;;;;;;5.89;54.81;100298.88;4987923;28;20057;-79
2022/10/21 01:48:19;;;;;;;4.85;3.42;;;;;;;5.76;55.56;100279.69;4984208;28;20076;-81
2022/10/21 01:50:55;;;;;;;7.18;3.13;;;;;;;5.56;55.14;100253.53;4982651;28;20042;-80
2022/10/21 01:53:27;;;;;;;5.80;3.58;;;;;;;5.51;55.52;100239.66;4966096;28;20038;-79
2022/10/21 01:55:56;;;;;;;5.60;3.47;;;;;;;5.79;55.53;100302.16;4965359;28;20034;-82
2022/10/21 01:58:27;;;;;;;6.57;3.40;;;;;;;5.79;55.79;100300.41;4981931;28;20046;-80
2022/10/21 02:00:56;;;;;;;10.63;3.45;;;;;;;5.77;55.99;100294.34;4967588;28;20069;-80
2022/10/21 02:03:29;;;;;;;6.88;3.28;;;;;;;5.62;55.09;100273.41;4981050;28;20045;-79
2022/10/21 02:05:55;;;;;;;7.50;3.42;;;;;;;5.83;55.55;100301.38;4992299;28;20038;-80
2022/10/21 02:08:21;;;;;;;7.32;3.35;;;;;;;5.82;55.45;100305.66;4983574;28;20034;-80
2022/10/21 02:11:02;;;;;;;5.05;3.20;;;;;;;5.73;56.02;100293.44;4999825;28;20073;-79
2022/10/21 02:13:44;;;;;;;6.60;3.20;;;;;;;5.80;56.11;100309.91;4983724;28;20061;-79
2022/10/21 02:16:15;;;;;;;5.82;3.20;;;;;;;5.56;55.85;100277.63;4998006;28;20110;-81
2022/10/21 02:18:41;;;;;;;7.38;3.50;;;;;;;5.60;55.55;100282.84;4979348;28;20043;-79
2022/10/21 02:21:15;;;;;;;5.78;3.55;;;;;;;5.66;56.03;100296.72;4993337;28;20098;-81
2022/10/21 02:23:57;;;;;;;5.00;3.08;;;;;;;5.67;55.80;100313.97;4965403;28;20038;-82
2022/10/21 02:26:26;;;;;;;5.43;3.30;;;;;;;5.57;55.91;100320.66;4960258;28;20038;-82
2022/10/21 02:28:56;;;;;;;8.30;3.13;;;;;;;5.53;56.03;100311.09;4960219;28;20041;-81
2022/10/21 02:31:25;;;;;;;8.50;3.20;;;;;;;5.47;56.51;100315.28;4968059;28;20039;-82
2022/10/21 02:34:00;;;;;;;7.03;3.72;;;;;;;5.47;56.44;100317.88;4982378;28;20043;-81
2022/10/21 02:36:56;;;;;;;6.03;2.90;;;;;;;5.41;56.61;100313.47;4962006;28;20422;-79
2022/10/21 02:39:34;;;;;;;5.60;3.25;;;;;;;5.30;56.50;100291.75;4958204;28;20062;-80
2022/10/21 02:42:03;;;;;;;7.10;2.72;;;;;;;5.25;56.55;100308.00;4978917;28;20043;-79
2022/10/21 02:44:29;;;;;;;6.82;3.10;;;;;;;5.18;56.66;100300.09;4961787;28;20047;-79
2022/10/21 02:46:55;;;;;;;6.85;3.40;;;;;;;5.34;57.18;100324.47;4978454;28;20126;-81
2022/10/21 02:49:21;;;;;;;6.57;2.90;;;;;;;5.08;56.04;100286.97;4993708;28;20066;-80
2022/10/21 02:51:47;;;;;;;5.53;2.85;;;;;;;5.19;57.11;100320.75;4980854;28;20089;-80
2022/10/21 02:54:13;;;;;;;4.72;2.67;;;;;;;5.07;56.99;100325.66;4966572;28;20042;-82
2022/10/21 02:56:39;;;;;;;6.13;3.03;;;;;;;5.14;57.08;100330.09;5001474;28;20043;-81
2022/10/21 02:59:05;;;;;;;6.13;2.75;;;;;;;5.05;57.21;100323.03;4960510;28;20556;-81
2022/10/21 03:01:31;;;;;;;5.95;2.90;;;;;;;5.10;57.45;100329.16;4971062;28;20045;-80
2022/10/21 03:03:57;;;;;;;4.40;2.53;;;;;;;5.16;57.50;100332.72;4984797;28;20022;-81
2022/10/21 03:06:23;;;;;;;4.50;2.70;;;;;;;5.09;57.19;100318.78;5000134;28;20049;-81
2022/10/21 03:08:49;;;;;;;4.18;2.35;;;;;;;5.04;57.31;100318.72;4988352;28;20043;-80
2022/10/21 03:11:15;;;;;;;5.45;2.47;;;;;;;5.15;57.53;100330.97;4961664;28;20045;-81
2022/10/21 03:13:41;;;;;;;4.97;2.60;;;;;;;4.87;57.31;100282.22;4977816;28;20564;-81
2022/10/21 03:16:10;;;;;;;4.80;2.78;;;;;;;5.03;58.24;100316.09;4977263;28;20362;-82
2022/10/21 03:18:36;;;;;;;5.57;2.45;;;;;;;5.00;58.20;100311.72;4979747;28;20149;-81
2022/10/21 03:21:05;;;;;;;5.47;2.50;;;;;;;4.86;57.96;100279.63;4996513;28;20509;-81
2022/10/21 03:23:34;;;;;;;7.72;2.50;;;;;;;5.06;58.19;100311.88;4996970;28;20072;-79
2022/10/21 03:26:00;;;;;;;7.70;2.97;;;;;;;4.93;58.16;100317.63;4963295;28;20046;-80
2022/10/21 03:28:26;;;;;;;5.10;2.50;;;;;;;4.91;58.43;100308.97;4996970;28;20049;-80
2022/10/21 03:30:53;;;;;;;4.32;2.63;;;;;;;4.90;58.02;100314.97;4997756;28;20046;-80
2022/10/21 03:33:19;;;;;;;5.32;2.90;;;;;;;4.79;59.02;100304.41;4980269;28;20493;-82
2022/10/21 03:36:32;;;;;;;4.50;2.90;;;;;;;4.72;58.55;100293.09;4979859;28;20049;-80
2022/10/21 03:44:01;;;;;;;6.15;2.95;;;;;;;4.07;58.46;100197.09;4890301;29;20082;-81
2022/10/21 03:46:36;;;;;;;5.43;3.05;;;;;;;4.59;58.72;100281.63;4920001;28;20629;-82
2022/10/21 03:49:02;;;;;;;7.68;2.95;;;;;;;4.59;58.72;100273.88;4979394;28;20133;-81
2022/10/21 03:51:49;;;;;;;5.78;2.92;;;;;;;4.93;58.59;100315.88;4984382;28;20073;-81
2022/10/21 03:54:16;;;;;;;10.02;3.47;;;;;;;4.58;59.01;100279.88;4988943;28;20120;-81
2022/10/21 03:56:42;;;;;;;8.38;3.60;;;;;;;4.65;59.18;100292.03;5000805;28;20501;-80
2022/10/21 03:59:08;;;;;;;15.68;2.97;;;;;;;4.70;59.46;100296.44;4996295;28;20062;-80
2022/10/21 04:01:35;;;;;;;7.00;2.92;;;;;;;4.56;59.35;100272.91;4978754;28;20041;-79
2022/10/21 04:04:01;;;;;;;11.45;3.00;;;;;;;4.94;59.74;100340.84;4979417;28;20046;-80
2022/10/21 04:06:27;;;;;;;4.80;2.70;;;;;;;4.77;60.08;100304.34;4978674;28;20042;-82
2022/10/21 04:08:53;;;;;;;8.70;2.83;;;;;;;4.75;59.99;100303.44;4946280;28;20088;-81
2022/10/21 04:11:19;;;;;;;8.35;2.60;;;;;;;5.04;59.96;100331.59;4978559;28;20112;-80
2022/10/21 04:13:51;;;;;;;4.72;2.85;;;;;;;4.88;59.88;100302.00;4978242;28;20046;-81
2022/10/21 04:16:19;;;;;;;4.20;3.08;;;;;;;4.87;59.64;100289.94;4976383;28;20069;-80
2022/10/21 04:18:47;;;;;;;8.18;2.95;;;;;;;4.94;59.85;100311.63;4960662;28;20039;-80
2022/10/21 04:21:13;;;;;;;5.75;3.03;;;;;;;4.83;60.12;100295.91;4992284;28;20042;-81
2022/10/21 04:23:40;;;;;;;4.18;2.88;;;;;;;5.06;60.18;100340.25;4975968;28;20056;-81
2022/10/21 04:26:06;;;;;;;11.63;3.25;;;;;;;5.07;60.00;100338.56;4942889;28;20046;-79
2022/10/21 04:28:32;;;;;;;6.03;3.08;;;;;;;4.95;60.01;100329.69;4959708;28;20530;-80
2022/10/21 04:30:58;;;;;;;6.82;3.30;;;;;;;5.01;60.03;100325.50;4961645;28;20046;-80
2022/10/21 04:33:25;;;;;;;5.63;3.35;;;;;;;5.09;60.20;100339.44;4960854;28;20464;-82
2022/10/21 04:35:53;;;;;;;7.03;3.50;;;;;;;4.94;60.25;100304.72;4944470;28;20042;-80
2022/10/21 04:38:19;;;;;;;8.27;3.35;;;;;;;4.96;60.41;100315.97;4945342;28;20046;-81
2022/10/21 04:40:45;;;;;;;9.13;4.13;;;;;;;5.11;60.01;100338.66;4976564;28;20042;-79
2022/10/21 04:43:14;;;;;;;9.55;3.38;;;;;;;4.98;60.25;100314.28;4960486;28;20125;-80
2022/10/21 04:45:43;;;;;;;12.38;3.63;;;;;;;5.13;60.52;100305.13;4961622;28;20119;-81
2022/10/21 04:48:12;;;;;;;9.38;3.20;;;;;;;4.74;60.79;100232.13;4975259;28;20502;-80
2022/10/21 04:50:41;;;;;;;4.07;2.83;;;;;;;5.45;60.58;100332.44;4947482;28;20043;-82
2022/10/21 04:53:07;;;;;;;6.95;3.15;;;;;;;5.40;60.43;100306.56;4959454;28;20045;-80
2022/10/21 04:55:33;;;;;;;6.10;3.10;;;;;;;5.60;60.44;100335.38;4958444;28;20035;-80
2022/10/21 04:57:59;;;;;;;4.32;3.05;;;;;;;5.72;60.52;100356.25;4975783;28;20046;-82
2022/10/21 05:00:25;;;;;;;6.05;3.00;;;;;;;5.73;60.67;100346.81;4943255;28;20042;-82
2022/10/21 05:02:51;;;;;;;4.43;2.90;;;;;;;5.93;60.22;100354.94;4958866;28;20038;-81
2022/10/21 05:05:17;;;;;;;4.10;2.80;;;;;;;5.90;60.33;100343.66;4974491;28;20051;-83
2022/10/21 05:07:43;;;;;;;5.70;2.88;;;;;;;5.77;60.32;100314.16;4944395;28;20049;-81
2022/10/21 05:10:09;;;;;;;8.20;3.45;;;;;;;5.99;60.19;100349.00;4975312;28;20085;-81
2022/10/21 05:12:35;;;;;;;8.45;3.30;;;;;;;5.98;60.31;100342.09;4942837;28;20039;-80
2022/10/21 05:15:01;;;;;;;6.65;2.97;;;;;;;6.02;59.91;100349.97;4989227;28;20046;-80
2022/10/21 05:17:29;;;;;;;4.93;3.03;;;;;;;5.99;60.53;100349.88;4973563;28;20094;-81
2022/10/21 05:19:55;;;;;;;5.28;2.90;;;;;;;5.87;60.27;100347.03;5016624;28;20074;-80
2022/10/21 05:22:22;;;;;;;5.80;3.45;;;;;;;5.83;60.42;100353.03;4981743;28;20073;-82
2022/10/21 05:24:48;;;;;;;7.97;3.20;;;;;;;5.65;60.51;100327.69;4987733;28;20083;-80
2022/10/21 05:27:14;;;;;;;10.95;3.47;;;;;;;5.88;60.24;100353.97;4952551;28;20649;-79
2022/10/21 05:29:43;;;;;;;10.20;4.13;;;;;;;5.90;60.47;100349.69;4996166;28;20030;-80
2022/10/21 05:32:09;;;;;;;6.43;3.50;;;;;;;5.97;60.85;100341.22;4977444;28;20490;-79
2022/10/21 05:34:35;;;;;;;6.45;3.13;;;;;;;6.18;60.89;100332.16;4979767;28;20042;-80
2022/10/21 05:37:02;;;;;;;4.47;3.28;;;;;;;5.86;60.70;100244.56;4977869;28;20053;-84
2022/10/21 05:39:28;;;;;;;5.78;2.75;;;;;;;5.98;60.09;100233.56;4978367;28;20638;-80
2022/10/21 05:41:54;;;;;;;4.70;3.13;;;;;;;6.54;60.10;100319.81;4977090;28;20065;-81
2022/10/21 05:44:23;;;;;;;7.03;3.47;;;;;;;6.49;60.28;100319.75;4976002;28;20050;-80
2022/10/21 05:47:36;;;;;;;9.50;4.38;;;;;;;5.79;60.07;100197.09;4977805;28;20722;-82
2022/10/21 05:54:27;;;;;;;9.18;3.55;;;;;;;6.46;60.11;100374.00;4904310;29;20071;-84
2022/10/21 05:56:56;;;;;;;15.48;3.97;;;;;;;6.40;59.95;100372.16;4974688;28;20081;-79
2022/10/21 06:00:13;;;;;;;10.05;4.60;;;;;;;6.01;59.62;100332.72;4984095;28;20045;-81
2022/10/21 06:02:57;;;;;;;11.57;4.30;;;;;;;5.42;60.05;100220.56;4986243;28;20050;-84
2022/10/21 06:05:34;;;;;;;8.35;3.58;;;;;;;6.39;60.22;100382.47;4969543;28;20512;-82
2022/10/21 06:08:30;;;;;;;8.88;4.43;;;;;;;6.20;60.28;100333.06;4987954;28;20050;-82
2022/10/21 06:11:10;;;;;;;11.90;4.67;;;;;;;6.12;60.75;100306.19;4992993;28;20110;-84
2022/10/21 06:13:38;;;;;;;8.85;4.00;;;;;;;6.15;60.31;100295.91;4999818;28;20136;-83
2022/10/21 06:20:22;;;;;;;8.63;3.97;;;;;;;5.97;60.42;100276.63;4996902;28;20049;-80
2022/10/21 06:22:50;;;;;;;8.07;4.05;;;;;;;6.61;60.48;100365.63;4976384;28;20421;-79
2022/10/21 06:25:22;;;;;;;9.05;3.65;;;;;;;5.75;60.00;100239.22;4991945;28;20428;-83
2022/10/21 06:27:52;;;;;;;7.85;3.70;;;;;;;6.25;59.87;100307.28;4955930;28;20046;-78
2022/10/21 06:30:22;;;;;;;8.60;3.97;;;;;;;6.60;60.07;100377.69;4989139;28;20050;-83
2022/10/21 06:32:51;;;;;;;10.85;3.75;;;;;;;5.90;60.02;100220.53;4957552;28;20421;-81
2022/10/21 06:35:21;;;;;;;9.15;4.10;;;;;;;6.34;60.18;100276.44;4965218;28;20081;-79
2022/10/21 06:37:49;;;;;;;10.15;3.85;;;;;;;6.86;60.05;100360.81;4983386;28;20045;-82
2022/10/21 06:40:21;;;;;;;15.07;4.00;;;;;;;5.90;59.95;100199.03;4970884;28;20027;-79
2022/10/21 06:43:07;;;;;;;9.27;4.10;;;;;;;5.94;60.01;100209.41;4969585;28;20541;-81
2022/10/21 06:45:45;;;;;;;9.38;3.90;;;;;;;6.05;59.88;100219.97;4966947;28;20095;-80
2022/10/21 06:48:16;;;;;;;11.48;3.88;;;;;;;6.91;59.76;100333.31;4966662;28;20073;-80
2022/10/21 06:50:43;;;;;;;;;;;;;;;7.36;59.72;100383.13;5000619;28;20026;-80
2022/10/21 06:53:09;;;;;;;7.05;3.30;;;;;;;7.23;59.71;100341.53;4981876;28;19918;-80
2022/10/21 06:55:39;;;;;;;7.90;3.90;;;;;;;7.50;59.52;100379.00;4945956;28;20063;-78
2022/10/21 06:58:31;;;;;;;9.18;3.75;;;;;;;7.52;59.23;100366.03;4983761;28;20042;-79
2022/10/21 07:00:57;;;;;;;6.93;3.75;;;;;;;7.53;59.40;100347.97;4948134;28;20027;-78
2022/10/21 07:03:24;;;;;;;8.77;3.70;;;;;;;7.72;59.08;100360.28;4964160;28;20071;-80
2022/10/21 07:05:57;;;;;;;16.17;4.03;;;;;;;7.66;58.89;100341.22;4963100;28;20019;-80
2022/10/21 07:08:26;;;;;;;8.60;4.18;;;;;;;7.96;59.07;100373.47;4944749;29;20491;-80
2022/10/21 07:10:52;;;;;;;7.35;4.15;;;;;;;7.96;58.70;100357.94;4964930;28;20063;-81
2022/10/21 07:13:26;;;;;;;9.13;4.60;;;;;;;7.89;58.61;100334.53;4962993;29;20043;-84
2022/10/21 07:15:58;;;;;;;8.88;4.43;;;;;;;7.94;58.51;100341.53;4963142;28;20051;-80
2022/10/21 07:18:26;;;;;;;8.90;4.45;;;;;;;7.41;58.65;100241.63;4983932;28;20505;-81
2022/10/21 07:21:16;;;;;;;6.47;4.70;;;;;;;7.98;58.34;100348.44;4984625;28;20046;-78
2022/10/21 07:23:46;;;;;;;8.10;4.72;;;;;;;7.80;58.40;100327.53;4991634;28;20026;-80
2022/10/21 07:26:13;;;;;;;5.55;4.70;;;;;;;8.18;58.80;100370.25;4999922;28;20066;-81
2022/10/21 07:28:41;;;;;;;6.53;4.78;;;;;;;8.31;59.08;100372.09;5014459;28;20054;-81
2022/10/21 07:31:07;;;;;;;5.90;4.60;;;;;;;8.46;59.12;100370.53;4972065;28;20034;-80
2022/10/21 07:33:37;;;;;;;7.18;4.25;;;;;;;8.54;58.98;100350.72;4969667;28;20497;-82
2022/10/21 07:36:07;;;;;;;6.30;3.97;;;;;;;8.57;59.04;100304.06;4972399;28;20108;-82
2022/10/21 07:38:33;;;;;;;5.55;4.15;;;;;;;8.39;58.86;100240.78;4948423;28;20035;-79
2022/10/21 07:41:00;;;;;;;7.00;4.10;;;;;;;8.92;59.28;100245.47;4988327;28;20038;-81
2022/10/21 07:43:29;;;;;;;5.25;4.00;;;;;;;11.08;59.66;100354.16;5006551;28;20495;-81
2022/10/21 07:45:58;;;;;;;5.50;3.67;;;;;;;12.11;57.69;100208.53;5007686;28;20058;-82
2022/10/21 07:48:25;;;;;;;6.95;4.03;;;;;;;13.73;55.03;100322.56;4989657;28;20034;-80
2022/10/21 07:50:56;;;;;;;6.35;3.78;;;;;;;13.76;53.21;100264.13;4955471;28;20042;-82
2022/10/21 07:53:25;;;;;;;5.82;4.38;;;;;;;13.64;51.12;100250.34;4974206;28;20529;-81
2022/10/21 07:56:23;;;;;;;6.25;3.85;;;;;;;12.76;50.33;100184.38;4983240;28;20043;-80
2022/10/21 07:59:10;;;;;;;9.48;4.05;;;;;;;13.20;50.49;100327.56;4948041;28;20042;-80
2022/10/21 08:03:20;;;;;;;4.80;4.30;;;;;;;12.94;50.15;100341.75;4966934;28;20121;-80
2022/10/21 08:06:36;;;;;;;6.30;4.10;;;;;;;11.23;49.94;100164.81;4940493;28;20514;-82
2022/10/21 08:13:12;;;;;;;8.57;4.38;;;;;;;11.23;50.90;100249.03;4937554;29;20177;-82
2022/10/21 08:15:55;;;;;;;5.88;4.20;;;;;;;11.14;51.05;100244.72;4916029;28;20454;-82
2022/10/21 08:18:47;;;;;;;8.10;5.05;;;;;;;11.13;51.38;100296.81;4943959;29;20077;-80
2022/10/21 08:21:14;;;;;;;6.15;3.88;;;;;;;10.88;51.51;100317.72;4943812;28;20478;-81
2022/10/21 08:23:40;;;;;;;5.78;4.60;;;;;;;10.05;51.01;100196.34;4963838;28;20039;-81
2022/10/21 08:26:14;;;;;;;9.23;5.28;;;;;;;10.02;51.91;100204.19;4981227;28;20042;-80
2022/10/21 08:28:41;;;;;;;9.45;4.28;;;;;;;10.32;51.95;100241.41;4964875;28;20132;-80
2022/10/21 08:31:24;;;;;;;8.25;4.35;;;;;;;10.15;51.66;100257.91;4961435;28;20046;-80
2022/10/21 08:33:50;;;;;;;6.82;4.00;;;;;;;10.75;51.73;100350.69;4961282;28;20042;-78
2022/10/21 08:36:26;;;;;;;5.78;3.83;;;;;;;10.48;52.01;100321.22;4943805;28;20049;-78
2022/10/21 08:43:38;;;;;;;10.40;4.30;;;;;;;9.74;52.16;100204.16;4958138;28;20424;-79
2022/10/21 08:47:40;;;;;;;;;;;;;;;;;;;;;
2022/10/21 08:50:48;;;;;;;9.48;4.18;;;;;;;10.52;52.09;100371.53;4977485;28;20141;-80
2022/10/21 08:53:26;;;;;;;9.18;3.88;;;;;;;9.22;52.26;100177.22;4941880;29;20051;-78
2022/10/21 08:56:01;;;;;;;5.63;4.15;;;;;;;9.87;52.32;100317.66;4940430;28;20043;-79
2022/10/21 08:58:27;;;;;;;5.05;4.05;;;;;;;9.60;52.83;100282.94;4978587;28;20087;-78
2022/10/21 09:00:59;;;;;;;4.53;3.75;;;;;;;10.02;53.02;100348.03;4976660;28;20049;-77
2022/10/21 09:04:00;;;;;;;6.15;4.47;;;;;;;9.70;53.30;100293.38;4950900;28;20085;-79
2022/10/21 09:06:59;;;;;;;5.03;4.10;;;;;;;10.09;52.79;100351.50;4957014;28;20399;-81
2022/10/21 09:09:34;;;;;;;7.60;5.18;;;;;;;10.07;52.89;100346.31;4981577;28;20061;-79
2022/10/21 09:12:38;;;;;;;7.15;4.22;;;;;;;10.14;53.04;100344.59;4961008;28;20038;-83
2022/10/21 09:15:23;;;;;;;7.78;5.05;;;;;;;10.18;53.48;100348.94;4976525;28;20038;-78
2022/10/21 09:18:17;;;;;;;6.72;4.82;;;;;;;10.31;53.26;100349.81;4962186;28;20047;-80
2022/10/21 09:21:04;;;;;;;8.00;4.65;;;;;;;10.24;53.50;100343.75;4972907;28;20098;-80
2022/10/21 09:23:39;;;;;;;6.30;4.53;;;;;;;10.18;53.25;100342.84;4954025;29;20046;-79
2022/10/21 09:30:06;;;;;;;9.23;5.10;;;;;;;10.44;52.93;100335.13;4927253;29;20051;-81
2022/10/21 09:32:50;;;;;;;7.07;5.45;;;;;;;9.95;52.99;100244.88;4921918;29;20063;-80
2022/10/21 09:35:38;;;;;;;8.00;4.80;;;;;;;10.83;52.58;100340.28;4954391;29;20047;-79
2022/10/21 09:38:21;;;;;;;6.93;4.45;;;;;;;10.45;52.33;100255.31;4958201;28;20136;-77
2022/10/21 09:44:23;;;;;;;13.15;5.28;;;;;;;10.49;51.24;100202.41;4995365;28;20053;-79
2022/10/21 09:47:11;;;;;;;12.30;5.00;;;;;;;11.07;50.81;100307.25;4900450;29;20048;-79
2022/10/21 09:50:18;;;;;;;8.05;5.47;;;;;;;10.01;51.24;100179.91;4928757;28;20086;-80
2022/10/21 09:53:18;;;;;;;;;;;;;;;;;;;;;
2022/10/21 09:56:10;;;;;;;8.13;5.07;;;;;;;9.78;51.32;100188.56;4972244;28;20085;-79
2022/10/21 09:59:16;;;;;;;9.20;5.32;;;;;;;10.69;52.13;100350.72;4957740;28;20102;-77
2022/10/21 10:01:43;;;;;;;9.18;5.47;;;;;;;10.34;52.22;100270.91;4944410;28;20061;-79
2022/10/21 10:05:27;;;;;;;13.07;5.15;;;;;;;10.98;51.83;100342.00;4962191;28;20050;-80
2022/10/21 10:08:22;;;;;;;12.32;5.47;;;;;;;10.09;51.50;100203.28;4950081;28;20050;-78
2022/10/21 10:22:15;;;;;;;12.45;6.63;;;;;;;10.13;51.75;100314.25;5954506;22;3625967;-80
2022/10/21 10:24:43;;;;;;;10.73;5.70;;;;;;;9.91;52.33;100314.22;6165077;23;20017;-77
2022/10/21 10:27:18;;;;;;;9.15;5.25;;;;;;;8.62;52.73;100123.38;6118221;23;20017;-83
2022/10/21 10:29:52;;;;;;;10.52;5.60;;;;;;;9.28;53.33;100238.69;6115418;23;20042;-81
2022/10/21 10:32:22;;;;;;;9.00;5.53;;;;;;;9.82;53.06;100316.78;6115519;23;20056;-82
2022/10/21 10:34:56;;;;;;;7.97;4.72;;;;;;;9.56;53.68;100281.22;6142646;23;20092;-81
2022/10/21 10:37:37;;;;;;;11.23;5.65;;;;;;;9.22;53.58;100230.88;6143515;23;20367;-80
2022/10/21 10:40:08;;;;;;;7.78;5.45;;;;;;;9.79;53.56;100346.25;6169543;23;20020;-82
2022/10/21 10:42:45;;;;;;;10.23;5.28;;;;;;;9.45;53.84;100278.59;6143606;23;20021;-82
2022/10/21 10:45:18;;;;;;;8.05;5.95;;;;;;;8.89;53.46;100186.63;6142265;23;20025;-80
2022/10/21 10:48:02;;;;;;;9.90;5.43;;;;;;;9.92;53.64;100331.53;6092798;23;20025;-81
2022/10/21 10:50:48;;;;;;;10.32;5.78;;;;;;;10.03;53.48;100333.31;6118193;23;20021;-82
2022/10/21 10:53:41;;;;;;;11.95;5.30;;;;;;;9.98;53.51;100335.03;6166813;23;20017;-79
2022/10/21 10:56:25;;;;;;;12.23;5.85;;;;;;;9.94;53.51;100319.41;6139715;23;20025;-81
2022/10/21 10:59:31;;;;;;;9.02;5.20;;;;;;;10.17;53.52;100308.19;6142753;23;20021;-81
2022/10/21 11:05:35;;;;;;;5.28;4.47;;;;;;;10.54;52.84;100315.16;6137370;23;20347;-82
2022/10/21 11:08:29;;;;;;;12.57;6.45;;;;;;;10.77;52.69;100306.47;6186033;23;20445;-80
2022/10/21 11:11:22;;;;;;;5.60;4.38;;;;;;;10.06;52.15;100195.47;6114824;23;20088;-79
2022/10/21 11:14:18;;;;;;;7.40;4.30;;;;;;;10.54;52.10;100257.91;6108761;23;20352;-77
2022/10/21 11:17:02;;;;;;;6.82;4.60;;;;;;;11.07;51.95;100309.84;6146753;23;20072;-78
2022/10/21 11:19:54;;;;;;;6.07;4.43;;;;;;;11.19;51.48;100304.63;6164827;23;20024;-79
2022/10/21 11:22:53;;;;;;;6.93;4.68;;;;;;;11.24;50.68;100307.22;6080323;23;20495;-77
2022/10/21 11:26:20;;;;;;;7.50;4.57;;;;;;;11.29;51.39;100313.28;6077838;23;20022;-79
2022/10/21 11:28:57;;;;;;;7.65;4.55;;;;;;;10.94;50.52;100241.31;6058507;23;20427;-79
2022/10/21 11:32:21;;;;;;;10.18;4.78;;;;;;;11.27;50.58;100320.22;6103582;23;20072;-78
2022/10/21 11:35:16;;;;;;;6.10;4.43;;;;;;;10.63;50.17;100224.06;6081588;23;20045;-82
2022/10/21 11:38:05;;;;;;;8.00;4.60;;;;;;;11.04;50.11;100310.75;6128092;23;20077;-79
2022/10/21 11:40:40;;;;;;;8.85;5.22;;;;;;;10.92;50.45;100303.81;6127852;23;20092;-79
2022/10/21 11:43:25;;;;;;;8.82;4.72;;;;;;;10.85;50.64;100302.09;6101754;23;20022;-79
2022/10/21 11:45:53;;;;;;;9.40;4.35;;;;;;;10.74;50.56;100304.72;6127660;23;20018;-77
2022/10/21 11:48:45;;;;;;;6.72;4.00;;;;;;;10.62;50.44;100292.59;6078347;23;20025;-80
2022/10/21 11:51:22;;;;;;;7.18;4.35;;;;;;;10.53;50.58;100283.06;6091754;23;20005;-87
2022/10/21 11:54:35;;;;;;;11.82;5.28;;;;;;;10.53;50.42;100287.41;6087830;23;20028;-83
2022/10/21 11:57:39;;;;;;;9.75;5.50;;;;;;;10.20;50.78;100279.59;6109488;23;20018;-78
2022/10/21 12:00:31;;;;;;;12.13;5.18;;;;;;;9.48;51.08;100217.97;6086603;23;20044;-80
2022/10/21 12:04:12;;;;;;;10.15;5.15;;;;;;;9.78;52.02;100286.47;6074794;23;20021;-81
2022/10/21 12:06:49;;;;;;;14.45;6.10;;;;;;;9.73;52.02;100285.59;6117906;23;20077;-80
2022/10/21 12:09:28;;;;;;;14.07;5.53;;;;;;;9.73;51.77;100288.19;6104993;23;20072;-79
2022/10/21 12:12:50;;;;;;;7.72;4.85;;;;;;;9.79;52.17;100291.66;6056912;23;20479;-81
2022/10/21 12:15:24;;;;;;;9.67;4.53;;;;;;;9.74;52.12;100288.16;6101624;23;20049;-81
2022/10/21 12:18:04;;;;;;;;;;;;;;;;;;;;;
2022/10/21 12:20:53;;;;;;;7.13;4.50;;;;;;;9.67;52.84;100290.75;6105152;23;20014;-80
2022/10/21 12:23:25;;;;;;;7.90;4.43;;;;;;;9.58;52.54;100291.59;6115445;23;20032;-81
2022/10/21 12:26:42;;;;;;;8.85;5.40;;;;;;;9.47;53.15;100284.66;6111772;23;20018;-81
2022/10/21 12:29:33;;;;;;;10.05;5.10;;;;;;;9.32;52.80;100295.84;6115237;23;20083;-80
2022/10/21 12:32:29;;;;;;;11.32;4.18;;;;;;;8.89;53.52;100244.59;6166482;23;20021;-81
2022/10/21 12:35:00;;;;;;;8.60;3.60;;;;;;;8.02;53.62;100094.50;6163541;23;20454;-81
2022/10/21 12:38:07;;;;;;;5.38;3.50;;;;;;;8.46;53.40;100174.25;6086424;23;20022;-80
2022/10/21 12:41:19;;;;;;;4.43;2.97;;;;;;;8.87;53.54;100216.91;6162257;23;20014;-80
2022/10/21 12:44:51;;;;;;;7.63;3.22;;;;;;;8.72;53.37;100202.97;6140928;23;20065;-81
2022/10/21 12:47:35;;;;;;;4.63;3.22;;;;;;;9.06;53.77;100248.13;6162538;23;20025;-81
2022/10/21 12:50:28;;;;;;;3.38;2.92;;;;;;;9.40;53.43;100284.59;6114679;23;20014;-82
2022/10/21 12:53:13;;;;;;;5.10;3.10;;;;;;;9.43;53.41;100282.03;6137455;23;20028;-81
2022/10/21 12:55:47;;;;;;;4.72;3.65;;;;;;;8.63;53.36;100164.03;6111180;23;20017;-80
2022/10/21 12:58:46;;;;;;;6.93;4.10;;;;;;;8.34;53.69;100118.00;6110900;23;20506;-81
2022/10/21 13:01:42;;;;;;;6.70;3.70;;;;;;;9.36;53.67;100273.34;6136236;23;20045;-81
2022/10/21 13:04:33;;;;;;;6.32;3.90;;;;;;;9.39;53.75;100272.47;6161261;23;20017;-81
2022/10/21 13:07:26;;;;;;;6.28;4.13;;;;;;;9.12;53.67;100230.84;6165262;23;20069;-82